Bookmark and Share
Track history (hours):
 

Glenda Meredith

Last reported at 2014-Feb-02 10:19 UTC. Time now 2014-Apr-20 08:57 UTC.
Position N 18°20' W 063°36'.
Warning: this ship's position is months out of date.

Length 182 m; draft 10.5 m.

Type: Tanker. MMSI: 636014450.

NotesDate/timePositionNaut miles runAvg speedWind from/ knotsBaromVisibWave heightAir tempDewpointWater temp
2014-Feb-02 10:19N 18°20' W 063°36'  
2014-Jan-26 09:12N 35°07' W 025°50'1412.6
2014-Jan-26 08:05N 35°11' W 025°33'1112.9
2014-Jan-26 07:14N 35°13' W 025°21'2313.3
2014-Jan-26 05:29N 35°19' W 024°53'1313.5
2014-Jan-26 04:32N 35°23' W 024°38'1713.2
2014-Jan-26 03:15N 35°27' W 024°18'1413.5
2014-Jan-26 02:11N 35°31' W 024°01'2413.5
2014-Jan-26 00:26N 35°38' W 023°33'69313.4
2014-Jan-23 20:33N 37°52' W 009°24'1312.9
2014-Jan-23 19:33N 37°54' W 009°08'1212.1
2014-Jan-23 18:33N 37°56' W 008°53'1 1.2
2014-Jan-23 17:33N 37°57' W 008°53'0 0.0
2014-Jan-23 16:33N 37°57' W 008°53'0 0.0
2014-Jan-23 15:33N 37°57' W 008°53'0 0.0
2014-Jan-23 14:33N 37°57' W 008°53'0 0.0
2014-Jan-23 13:33N 37°57' W 008°53'0 0.0
2014-Jan-23 12:33N 37°57' W 008°53'0 0.0
2014-Jan-23 11:33N 37°57' W 008°53'0 0.0
2014-Jan-23 10:33N 37°57' W 008°53'  

Dump ship's entire track history

sailing weather and tide predictions

Glenda Meredith — A8TX2 — position and weather